Saint Louis, MO (63139)

3:50 AM CDT on August 02, 2015 (GMT -0500)
ACW Alliance at BJC Washington University Campus | | Change Station
CLOSE
Current Station
Personal Weather Station
Location: Saint Louis, MO
Elevation: 545 ft
Nearby Weather Stations

Elev 545 ft 38.64 °N, 90.27 °W | Updated 11 seconds ago

Partly Cloudy
Partly Cloudy
76.1 °F
Feels Like 77 °F
N
5.6
Wind Variable Wind from East
Gusts 7.0 mph

Today
High -- | Low -- °F
--% Chance of Precip.
Yesterday
High -- | Low -- °F
Precip. -- in
6:03 AM 8:10 PM
Waning Gibbous, 95% visible
Pressure 29.92 in
Visibility 10.0 miles
Clouds Mostly Cloudy 15000 ft
Mostly Cloudy 25000 ft
Heat Index 77 °F
Dew Point 71 °F
Humidity 85%
Rainfall 0.00 in
Snow Depth Not available.
UV 0 out of 12
Pollen 7.10 out of 12
Air Quality Not available.
Flu Activity Not available.
METAR KSTL 020751Z 20006KT 10SM BKN150 BKN250 26/21 A2996 RMK AO2 SLP130 T02610211

More Conditions Fewer Conditions

Pressure 29.92 in
Visibility 10.0 miles
Clouds Mostly Cloudy 15000 ft
Mostly Cloudy 25000 ft
Heat Index 77 °F
Dew Point 71 °F
Humidity 85%
Rainfall 0.00 in
Snow Depth Not available.
UV 0 out of 12
Pollen 7.10 out of 12
Air Quality Not available.
Flu Activity Not available.
METAR KSTL 020751Z 20006KT 10SM BKN150 BKN250 26/21 A2996 RMK AO2 SLP130 T02610211

More Conditions Fewer Conditions

10-Day Weather Forecast

×

Almanac

Astronomy

Aug. 02, 2015 Rise Set
Actual Time
Civil Twilight
Nautical Twilight
Astronomical Twilight
Moon
Length of Visible Light
Length of Day
Tomorrow will be .
, % of the Moon is Illuminated

Today's Extremes

State Highs State Lows

Community

WunderPhotos

Upload Photos

1,843,208 photos uploaded!

WunderBlogs® & News

Nearby

Air Quality

  Air Quality AQ Index Pollutant
Not available.

Snow Depth

Station Depth Elevation

Earthquake Activity

City Distance Mag. Time & Date
Minimum magnitude displayed is 2.5.

Coastal Water Temperatures

Place Temperature

Stations

Nearby Weather Stations

Station Location Temp. Windchill Dew Point Humidity Wind Precip. Elev Updated Type